createdAt,value
2018-07-21T00:00:48.290Z,995.17
2018-07-21T00:01:47.852Z,995.14
2018-07-21T00:02:48.728Z,995.13
2018-07-21T00:03:50.667Z,995.11
2018-07-21T00:04:48.347Z,995.07
2018-07-21T00:05:48.339Z,995.09
2018-07-21T00:06:49.312Z,995.04
2018-07-21T00:07:48.687Z,995.04
2018-07-21T00:08:48.376Z,995.04
2018-07-21T00:09:48.304Z,995.02
2018-07-21T00:10:48.842Z,995.03
2018-07-21T00:11:48.326Z,995.04
2018-07-21T00:12:48.827Z,994.99
2018-07-21T00:13:49.378Z,994.99
2018-07-21T00:14:49.309Z,994.99
2018-07-21T00:15:48.854Z,994.98
2018-07-21T00:16:47.553Z,994.98
2018-07-21T00:17:48.867Z,994.98
2018-07-21T00:18:48.724Z,994.95
2018-07-21T00:19:48.301Z,995.03
2018-07-21T00:20:48.782Z,995.02
2018-07-21T00:21:48.272Z,995.04
2018-07-21T00:22:47.472Z,995.02
2018-07-21T00:23:48.845Z,995.06
2018-07-21T00:24:48.793Z,995.07
2018-07-21T00:25:48.301Z,995.04
2018-07-21T00:26:48.237Z,995.06
2018-07-21T00:27:47.490Z,995.06
2018-07-21T00:28:47.105Z,995.03
2018-07-21T00:29:47.105Z,995.03
2018-07-21T00:30:47.107Z,995.00
2018-07-21T00:31:47.118Z,994.98
2018-07-21T00:32:47.113Z,994.96
2018-07-21T00:33:47.115Z,994.95
2018-07-21T00:34:47.120Z,994.95
2018-07-21T00:35:47.122Z,994.93
2018-07-21T00:36:47.125Z,994.94
2018-07-21T00:37:47.127Z,994.93
2018-07-21T00:38:47.129Z,994.92
2018-07-21T00:39:47.132Z,994.92
2018-07-21T00:40:47.136Z,994.92
2018-07-21T00:41:47.139Z,994.91
2018-07-21T00:42:47.140Z,994.90
2018-07-21T00:43:47.144Z,994.90
2018-07-21T00:44:47.149Z,994.93
2018-07-21T00:45:47.152Z,994.94
2018-07-21T00:46:47.159Z,994.96
2018-07-21T00:47:47.156Z,994.96
2018-07-21T00:48:47.158Z,994.95
2018-07-21T00:49:47.160Z,994.97
2018-07-21T00:50:47.550Z,994.98
2018-07-21T00:51:47.167Z,995.03
2018-07-21T00:52:47.169Z,995.05
2018-07-21T00:53:47.175Z,995.01
2018-07-21T00:54:47.188Z,994.98
2018-07-21T00:55:47.178Z,995.02
2018-07-21T00:56:47.182Z,995.03
2018-07-21T00:57:47.186Z,995.01
2018-07-21T00:58:47.187Z,994.98
2018-07-21T00:59:47.192Z,994.99
2018-07-21T01:00:47.196Z,995.04
2018-07-21T01:01:47.199Z,995.02
2018-07-21T01:02:47.197Z,995.04
2018-07-21T01:03:47.200Z,995.03
2018-07-21T01:04:47.204Z,995.01
2018-07-21T01:05:47.206Z,994.99
2018-07-21T01:06:47.218Z,994.97
2018-07-21T01:07:47.211Z,994.94
2018-07-21T01:08:47.214Z,994.98
2018-07-21T01:09:47.235Z,994.95
2018-07-21T01:10:47.220Z,994.97
2018-07-21T01:11:47.232Z,994.93
2018-07-21T01:12:47.227Z,994.93
2018-07-21T01:13:47.228Z,994.95
2018-07-21T01:14:47.235Z,994.99
2018-07-21T01:15:47.233Z,994.98
2018-07-21T01:16:47.237Z,995.01
2018-07-21T01:17:47.241Z,994.97
2018-07-21T01:18:47.241Z,994.92
2018-07-21T01:19:47.245Z,994.96
2018-07-21T01:20:47.250Z,994.91
2018-07-21T01:21:48.043Z,994.92
2018-07-21T01:22:47.252Z,994.92
2018-07-21T01:23:47.255Z,994.94
2018-07-21T01:24:47.259Z,994.93
2018-07-21T01:25:47.282Z,994.89
2018-07-21T01:26:47.263Z,994.93
2018-07-21T01:27:47.266Z,994.91
2018-07-21T01:28:47.270Z,994.87
2018-07-21T01:29:47.276Z,994.90
2018-07-21T01:30:47.277Z,994.92
2018-07-21T01:31:47.277Z,994.86
2018-07-21T01:32:47.281Z,994.92
2018-07-21T01:33:47.284Z,994.91
2018-07-21T01:34:47.284Z,994.86
2018-07-21T01:35:47.289Z,994.86
2018-07-21T01:36:47.294Z,994.89
2018-07-21T01:37:47.296Z,994.88
2018-07-21T01:38:47.295Z,994.90
2018-07-21T01:39:47.298Z,994.93
2018-07-21T01:40:47.301Z,994.93
2018-07-21T01:41:47.305Z,994.94
2018-07-21T01:42:47.306Z,994.93
2018-07-21T01:43:47.307Z,994.92
2018-07-21T01:44:47.312Z,994.91
2018-07-21T01:45:47.316Z,994.91
2018-07-21T01:46:47.315Z,994.91
2018-07-21T01:47:47.320Z,994.92
2018-07-21T01:48:47.324Z,994.93
2018-07-21T01:49:47.329Z,994.94
2018-07-21T01:50:47.350Z,994.92
2018-07-21T01:51:47.330Z,994.90
2018-07-21T01:52:47.331Z,994.90
2018-07-21T01:53:47.339Z,994.91
2018-07-21T01:54:47.335Z,994.94
2018-07-21T01:55:47.338Z,994.92
2018-07-21T01:56:47.343Z,994.91
2018-07-21T01:57:47.351Z,994.97
2018-07-21T01:58:47.345Z,994.97
2018-07-21T01:59:47.358Z,994.94
2018-07-21T02:00:47.351Z,994.93
2018-07-21T02:01:47.357Z,994.92
2018-07-21T02:02:47.357Z,994.96
2018-07-21T02:03:47.360Z,994.90
2018-07-21T02:04:47.365Z,994.94
2018-07-21T02:05:47.364Z,994.95
2018-07-21T02:06:47.366Z,994.93
2018-07-21T02:07:47.368Z,994.91
2018-07-21T02:08:47.372Z,994.92
2018-07-21T02:09:47.374Z,994.89
2018-07-21T02:10:47.375Z,994.90
2018-07-21T02:11:47.381Z,994.88
2018-07-21T02:12:47.421Z,994.90
2018-07-21T02:13:47.385Z,994.92
2018-07-21T02:14:47.386Z,994.90
2018-07-21T02:15:47.390Z,994.90
2018-07-21T02:16:47.394Z,994.89
2018-07-21T02:17:47.397Z,994.87
2018-07-21T02:18:47.397Z,994.88
2018-07-21T02:19:47.403Z,994.90
2018-07-21T02:20:47.404Z,994.83
2018-07-21T02:21:47.406Z,994.86
2018-07-21T02:22:47.410Z,994.80
2018-07-21T02:23:47.453Z,994.81
2018-07-21T02:24:47.443Z,994.74
2018-07-21T02:25:47.417Z,994.71
2018-07-21T02:26:47.423Z,994.74
2018-07-21T02:27:47.422Z,994.71
2018-07-21T02:28:47.426Z,994.72
2018-07-21T02:29:47.434Z,994.71
2018-07-21T02:30:47.430Z,994.75
2018-07-21T02:31:47.432Z,994.74
2018-07-21T02:32:47.437Z,994.69
2018-07-21T02:33:47.438Z,994.69
2018-07-21T02:34:47.445Z,994.68
2018-07-21T02:35:47.443Z,994.67
2018-07-21T02:36:47.448Z,994.70
2018-07-21T02:37:47.450Z,994.73
2018-07-21T02:38:47.452Z,994.69
2018-07-21T02:39:47.453Z,994.74
2018-07-21T02:40:47.457Z,994.75
2018-07-21T02:41:47.466Z,994.72
2018-07-21T02:42:47.461Z,994.76
2018-07-21T02:43:47.465Z,994.77
2018-07-21T02:44:47.476Z,994.74
2018-07-21T02:45:47.576Z,994.74
2018-07-21T02:46:47.476Z,994.72
2018-07-21T02:47:47.475Z,994.76
2018-07-21T02:48:47.479Z,994.73
2018-07-21T02:49:47.481Z,994.71
2018-07-21T02:50:47.491Z,994.72
2018-07-21T02:51:47.486Z,994.70
2018-07-21T02:52:47.494Z,994.68
2018-07-21T02:53:47.493Z,994.68
2018-07-21T02:54:47.497Z,994.66
2018-07-21T02:55:47.497Z,994.68
2018-07-21T02:56:47.508Z,994.66
2018-07-21T02:57:47.503Z,994.68
2018-07-21T02:58:47.506Z,994.69
2018-07-21T02:59:47.509Z,994.65
2018-07-21T03:00:47.511Z,994.64
2018-07-21T03:01:47.515Z,994.65
2018-07-21T03:02:47.520Z,994.65
2018-07-21T03:03:47.519Z,994.65
2018-07-21T03:04:47.523Z,994.67
2018-07-21T03:05:47.526Z,994.65
2018-07-21T03:06:47.527Z,994.65
2018-07-21T03:07:47.533Z,994.56
2018-07-21T03:08:47.538Z,994.54
2018-07-21T03:09:47.536Z,994.56
2018-07-21T03:10:47.540Z,994.58
2018-07-21T03:11:47.542Z,994.56
2018-07-21T03:12:47.545Z,994.55
2018-07-21T03:13:47.547Z,994.55
2018-07-21T03:14:47.551Z,994.58
2018-07-21T03:15:47.553Z,994.60
2018-07-21T03:16:47.556Z,994.58
2018-07-21T03:17:47.558Z,994.62
2018-07-21T03:18:47.562Z,994.60
2018-07-21T03:19:47.562Z,994.62
2018-07-21T03:20:47.570Z,994.65
2018-07-21T03:21:47.572Z,994.67
2018-07-21T03:22:47.573Z,994.71
2018-07-21T03:23:47.575Z,994.66
2018-07-21T03:24:47.685Z,994.66
2018-07-21T03:25:47.579Z,994.66
2018-07-21T03:26:47.581Z,994.65
2018-07-21T03:27:47.587Z,994.66
2018-07-21T03:28:47.634Z,994.60
2018-07-21T03:29:47.604Z,994.61
2018-07-21T03:30:47.612Z,994.56
2018-07-21T03:31:47.599Z,994.56
2018-07-21T03:32:47.607Z,994.54
2018-07-21T03:33:47.600Z,994.53
2018-07-21T03:34:47.601Z,994.50
2018-07-21T03:35:47.607Z,994.44
2018-07-21T03:36:47.609Z,994.48
2018-07-21T03:37:47.611Z,994.46
2018-07-21T03:38:47.615Z,994.48
2018-07-21T03:39:47.615Z,994.50
2018-07-21T03:40:47.624Z,994.47
2018-07-21T03:41:47.621Z,994.50
2018-07-21T03:42:47.624Z,994.54
2018-07-21T03:43:47.625Z,994.56
2018-07-21T03:44:47.631Z,994.56
2018-07-21T03:45:47.632Z,994.57
2018-07-21T03:46:47.634Z,994.61
2018-07-21T03:47:47.640Z,994.64
2018-07-21T03:48:47.640Z,994.65
2018-07-21T03:49:47.643Z,994.65
2018-07-21T03:50:47.645Z,994.67
2018-07-21T03:51:47.646Z,994.68
2018-07-21T03:52:47.656Z,994.70
2018-07-21T03:53:47.654Z,994.68
2018-07-21T03:54:47.655Z,994.67
2018-07-21T03:55:48.092Z,994.67
2018-07-21T03:56:47.662Z,994.64
2018-07-21T03:57:47.663Z,994.63
2018-07-21T03:58:47.667Z,994.62
2018-07-21T03:59:47.669Z,994.60
2018-07-21T04:00:47.674Z,994.60
2018-07-21T04:01:47.677Z,994.57
2018-07-21T04:02:47.678Z,994.59
2018-07-21T04:03:47.680Z,994.60
2018-07-21T04:04:47.682Z,994.60
2018-07-21T04:05:47.685Z,994.63
2018-07-21T04:06:47.688Z,994.60
2018-07-21T04:07:47.721Z,994.56
2018-07-21T04:08:47.753Z,994.60
2018-07-21T04:09:47.696Z,994.59
2018-07-21T04:10:47.698Z,994.54
2018-07-21T04:11:47.702Z,994.55
2018-07-21T04:12:47.708Z,994.58
2018-07-21T04:13:47.706Z,994.55
2018-07-21T04:14:47.713Z,994.56
2018-07-21T04:15:47.712Z,994.57
2018-07-21T04:16:47.726Z,994.58
2018-07-21T04:17:47.720Z,994.55
2018-07-21T04:18:47.723Z,994.54
2018-07-21T04:19:47.724Z,994.56
2018-07-21T04:20:47.728Z,994.57
2018-07-21T04:21:47.730Z,994.56
2018-07-21T04:22:47.732Z,994.55
2018-07-21T04:23:47.736Z,994.59
2018-07-21T04:24:47.739Z,994.54
2018-07-21T04:25:47.740Z,994.54
2018-07-21T04:26:48.468Z,994.52
2018-07-21T04:27:47.751Z,994.48
2018-07-21T04:28:47.752Z,994.51
2018-07-21T04:29:47.758Z,994.48
2018-07-21T04:30:47.755Z,994.46
2018-07-21T04:31:47.757Z,994.46
2018-07-21T04:32:47.761Z,994.46
2018-07-21T04:33:47.762Z,994.46
2018-07-21T04:34:47.767Z,994.48
2018-07-21T04:35:47.772Z,994.45
2018-07-21T04:36:47.771Z,994.47
2018-07-21T04:37:47.775Z,994.46
2018-07-21T04:38:47.776Z,994.46
2018-07-21T04:39:47.778Z,994.44
2018-07-21T04:40:47.782Z,994.46
2018-07-21T04:41:47.783Z,994.46
2018-07-21T04:42:47.785Z,994.46
2018-07-21T04:43:47.787Z,994.47
2018-07-21T04:44:47.790Z,994.49
2018-07-21T04:45:47.796Z,994.41
2018-07-21T04:46:47.795Z,994.45
2018-07-21T04:47:47.798Z,994.41
2018-07-21T04:48:47.800Z,994.43
2018-07-21T04:49:47.809Z,994.42
2018-07-21T04:50:47.816Z,994.45
2018-07-21T04:51:47.809Z,994.45
2018-07-21T04:52:47.811Z,994.48
2018-07-21T04:53:47.820Z,994.45
2018-07-21T04:54:47.816Z,994.44
2018-07-21T04:55:47.822Z,994.49
2018-07-21T04:56:47.821Z,994.47
2018-07-21T04:57:47.826Z,994.48
2018-07-21T04:58:47.827Z,994.48
2018-07-21T04:59:47.829Z,994.41
2018-07-21T05:00:47.874Z,994.42
2018-07-21T05:01:47.835Z,994.41
2018-07-21T05:02:47.839Z,994.40
2018-07-21T05:03:47.840Z,994.41
2018-07-21T05:04:47.844Z,994.40
2018-07-21T05:05:47.846Z,994.38
2018-07-21T05:06:47.856Z,994.35
2018-07-21T05:07:47.851Z,994.35
2018-07-21T05:08:47.857Z,994.29
2018-07-21T05:09:47.860Z,994.33
2018-07-21T05:10:47.860Z,994.34
2018-07-21T05:11:47.862Z,994.37
2018-07-21T05:12:47.865Z,994.33
2018-07-21T05:13:47.884Z,994.32
2018-07-21T05:14:47.871Z,994.33
2018-07-21T05:15:47.873Z,994.33
2018-07-21T05:16:47.875Z,994.36
2018-07-21T05:17:47.879Z,994.41
2018-07-21T05:18:47.883Z,994.41
2018-07-21T05:19:47.883Z,994.42
2018-07-21T05:20:47.931Z,994.42
2018-07-21T05:21:47.891Z,994.43
2018-07-21T05:22:47.897Z,994.42
2018-07-21T05:23:47.895Z,994.39
2018-07-21T05:24:47.900Z,994.38
2018-07-21T05:25:47.911Z,994.41
2018-07-21T05:26:47.906Z,994.45
2018-07-21T05:27:47.909Z,994.48
2018-07-21T05:28:47.913Z,994.49
2018-07-21T05:29:47.920Z,994.43
2018-07-21T05:30:47.920Z,994.43
2018-07-21T05:31:47.922Z,994.40
2018-07-21T05:32:47.927Z,994.41
2018-07-21T05:33:47.935Z,994.42
2018-07-21T05:34:47.933Z,994.46
2018-07-21T05:35:47.944Z,994.45
2018-07-21T05:36:47.951Z,994.42
2018-07-21T05:37:47.947Z,994.43
2018-07-21T05:38:47.949Z,994.38
2018-07-21T05:39:47.955Z,994.42
2018-07-21T05:40:47.958Z,994.39
2018-07-21T05:41:47.964Z,994.41
2018-07-21T05:42:48.011Z,994.43
2018-07-21T05:43:47.974Z,994.45
2018-07-21T05:44:47.976Z,994.45
2018-07-21T05:45:47.982Z,994.46
2018-07-21T05:46:47.986Z,994.47
2018-07-21T05:47:47.988Z,994.46
2018-07-21T05:48:47.993Z,994.51
2018-07-21T05:49:48.002Z,994.48
2018-07-21T05:50:48.003Z,994.46
2018-07-21T05:51:48.010Z,994.46
2018-07-21T05:52:48.012Z,994.50
2018-07-21T05:53:48.018Z,994.46
2018-07-21T05:54:48.019Z,994.44
2018-07-21T05:55:48.023Z,994.48
2018-07-21T05:56:48.029Z,994.43
2018-07-21T05:57:48.032Z,994.43
2018-07-21T05:58:48.036Z,994.42
2018-07-21T05:59:48.040Z,994.45
2018-07-21T06:00:48.061Z,994.42
2018-07-21T06:01:48.051Z,994.43
2018-07-21T06:02:48.108Z,994.48
2018-07-21T06:03:48.062Z,994.45
2018-07-21T06:04:48.066Z,994.43
2018-07-21T06:05:48.065Z,994.50
2018-07-21T06:06:48.069Z,994.48
2018-07-21T06:07:48.076Z,994.43
2018-07-21T06:08:48.078Z,994.44
2018-07-21T06:09:48.083Z,994.45
2018-07-21T06:10:48.085Z,994.44
2018-07-21T06:11:48.094Z,994.47
2018-07-21T06:12:48.095Z,994.48
2018-07-21T06:13:48.102Z,994.51
2018-07-21T06:14:48.102Z,994.46
2018-07-21T06:15:48.109Z,994.46
2018-07-21T06:16:48.139Z,994.44
2018-07-21T06:17:48.115Z,994.44
2018-07-21T06:18:48.172Z,994.44
2018-07-21T06:19:48.126Z,994.47
2018-07-21T06:20:48.130Z,994.46
2018-07-21T06:21:48.140Z,994.50
2018-07-21T06:22:48.142Z,994.46
2018-07-21T06:23:48.161Z,994.48
2018-07-21T06:24:48.145Z,994.51
2018-07-21T06:25:48.150Z,994.51
2018-07-21T06:26:48.154Z,994.51
2018-07-21T06:27:48.159Z,994.47
2018-07-21T06:28:48.187Z,994.48
2018-07-21T06:29:48.168Z,994.47
2018-07-21T06:30:48.176Z,994.45
2018-07-21T06:31:48.175Z,994.50
2018-07-21T06:32:48.182Z,994.48
2018-07-21T06:33:48.184Z,994.42
2018-07-21T06:34:48.187Z,994.44
2018-07-21T06:35:48.197Z,994.42
2018-07-21T06:36:48.196Z,994.46
2018-07-21T06:37:48.200Z,994.45
2018-07-21T06:38:48.206Z,994.42
2018-07-21T06:39:48.210Z,994.49
2018-07-21T06:40:48.216Z,994.47
2018-07-21T06:41:48.219Z,994.47
2018-07-21T06:42:48.221Z,994.48
2018-07-21T06:43:48.285Z,994.47
2018-07-21T06:44:48.231Z,994.51
2018-07-21T06:45:48.236Z,994.51
2018-07-21T06:46:48.241Z,994.52
2018-07-21T06:47:48.245Z,994.49
2018-07-21T06:48:48.256Z,994.50
2018-07-21T06:49:48.260Z,994.51
2018-07-21T06:50:48.256Z,994.49
2018-07-21T06:51:48.260Z,994.48
2018-07-21T06:52:48.265Z,994.46
2018-07-21T06:53:48.271Z,994.45
2018-07-21T06:54:48.275Z,994.45
2018-07-21T06:55:48.279Z,994.45
2018-07-21T06:56:48.284Z,994.44
2018-07-21T06:57:48.292Z,994.46
2018-07-21T06:58:48.296Z,994.46
2018-07-21T06:59:48.298Z,994.46
2018-07-21T07:00:48.378Z,994.44
2018-07-21T07:01:48.314Z,994.43
2018-07-21T07:02:48.312Z,994.49
2018-07-21T07:03:48.317Z,994.50
2018-07-21T07:04:48.329Z,994.51
2018-07-21T07:05:48.335Z,994.50
2018-07-21T07:06:48.329Z,994.49
2018-07-21T07:07:48.338Z,994.53
2018-07-21T07:08:48.343Z,994.52
2018-07-21T07:09:48.342Z,994.52
2018-07-21T07:10:48.346Z,994.52
2018-07-21T07:11:48.351Z,994.57
2018-07-21T07:12:48.356Z,994.59
2018-07-21T07:13:48.362Z,994.62
2018-07-21T07:14:48.366Z,994.58
2018-07-21T07:15:48.368Z,994.59
2018-07-21T07:16:48.377Z,994.61
2018-07-21T07:17:48.378Z,994.61
2018-07-21T07:18:48.383Z,994.62
2018-07-21T07:19:48.391Z,994.63
2018-07-21T07:20:48.393Z,994.63
2018-07-21T07:21:48.398Z,994.63
2018-07-21T07:22:48.400Z,994.66
2018-07-21T07:23:48.404Z,994.66
2018-07-21T07:24:48.410Z,994.65
2018-07-21T07:25:48.419Z,994.65
2018-07-21T07:26:48.418Z,994.68
2018-07-21T07:27:48.429Z,994.69
2018-07-21T07:28:48.429Z,994.65
2018-07-21T07:29:48.434Z,994.68
2018-07-21T07:30:48.439Z,994.65
2018-07-21T07:31:48.780Z,994.69
2018-07-21T07:32:48.447Z,994.69
2018-07-21T07:33:48.455Z,994.72
2018-07-21T07:34:48.458Z,994.70
2018-07-21T07:35:48.464Z,994.70
2018-07-21T07:36:48.478Z,994.71
2018-07-21T07:37:48.472Z,994.69
2018-07-21T07:38:48.477Z,994.73
2018-07-21T07:39:48.482Z,994.73
2018-07-21T07:40:48.489Z,994.76
2018-07-21T07:41:48.492Z,994.77
2018-07-21T07:42:48.498Z,994.75
2018-07-21T07:43:48.505Z,994.76
2018-07-21T07:44:48.508Z,994.76
2018-07-21T07:45:48.512Z,994.74
2018-07-21T07:46:48.516Z,994.73
2018-07-21T07:47:48.524Z,994.74
2018-07-21T07:48:48.527Z,994.72
2018-07-21T07:49:48.798Z,994.73
2018-07-21T07:50:48.537Z,994.73
2018-07-21T07:51:48.541Z,994.71
2018-07-21T07:52:48.554Z,994.73
2018-07-21T07:53:48.553Z,994.75
2018-07-21T07:54:48.562Z,994.78
2018-07-21T07:55:48.562Z,994.82
2018-07-21T07:56:48.583Z,994.82
2018-07-21T07:57:48.574Z,994.83
2018-07-21T07:58:48.579Z,994.82
2018-07-21T07:59:48.582Z,994.81
2018-07-21T08:00:48.587Z,994.79
2018-07-21T08:01:48.592Z,994.82
2018-07-21T08:02:49.179Z,994.81
2018-07-21T08:03:48.603Z,994.83
2018-07-21T08:04:48.607Z,994.84
2018-07-21T08:05:48.613Z,994.87
2018-07-21T08:06:48.616Z,994.92
2018-07-21T08:07:48.661Z,994.91
2018-07-21T08:08:48.630Z,994.90
2018-07-21T08:09:48.636Z,994.93
2018-07-21T08:10:48.638Z,994.91
2018-07-21T08:11:48.645Z,994.91
2018-07-21T08:12:48.651Z,994.91
2018-07-21T08:13:48.654Z,994.91
2018-07-21T08:14:48.676Z,994.91
2018-07-21T08:15:48.681Z,994.92
2018-07-21T08:16:48.670Z,994.90
2018-07-21T08:17:48.677Z,994.94
2018-07-21T08:18:48.679Z,994.93
2018-07-21T08:19:48.682Z,994.89
2018-07-21T08:20:48.691Z,994.95
2018-07-21T08:21:48.694Z,994.92
2018-07-21T08:22:48.697Z,994.91
2018-07-21T08:23:48.704Z,994.91
2018-07-21T08:24:48.712Z,994.88
2018-07-21T08:25:48.716Z,994.94
2018-07-21T08:26:48.719Z,994.98
2018-07-21T08:27:48.727Z,994.94
2018-07-21T08:28:48.731Z,994.93
2018-07-21T08:29:48.735Z,994.95
2018-07-21T08:30:48.741Z,994.92
2018-07-21T08:31:48.746Z,994.96
2018-07-21T08:32:48.753Z,994.96
2018-07-21T08:33:49.561Z,994.95
2018-07-21T08:34:48.762Z,994.94
2018-07-21T08:35:48.768Z,994.95
2018-07-21T08:36:48.774Z,994.96
2018-07-21T08:37:48.780Z,994.97
2018-07-21T08:38:48.788Z,995.02
2018-07-21T08:39:48.802Z,995.01
2018-07-21T08:40:48.795Z,995.04
2018-07-21T08:41:48.798Z,995.02
2018-07-21T08:42:48.806Z,995.00
2018-07-21T08:43:48.810Z,995.02
2018-07-21T08:44:48.817Z,995.03
2018-07-21T08:45:48.824Z,995.01
2018-07-21T08:46:48.829Z,995.02
2018-07-21T08:47:48.832Z,995.02
2018-07-21T08:48:48.838Z,995.01
2018-07-21T08:49:48.926Z,995.01
2018-07-21T08:50:48.848Z,995.03
2018-07-21T08:51:48.854Z,995.05
2018-07-21T08:52:48.862Z,995.06
2018-07-21T08:53:48.864Z,995.04
2018-07-21T08:54:48.869Z,995.05
2018-07-21T08:55:48.952Z,995.05
2018-07-21T08:56:48.912Z,995.01
2018-07-21T08:57:48.887Z,995.01
2018-07-21T08:58:48.897Z,995.05
2018-07-21T08:59:48.897Z,995.01
2018-07-21T09:00:48.904Z,995.01
2018-07-21T09:01:48.914Z,995.00
2018-07-21T09:02:48.915Z,994.98
2018-07-21T09:03:48.922Z,994.99
2018-07-21T09:04:48.926Z,994.96
2018-07-21T09:05:48.950Z,995.00
2018-07-21T09:06:48.936Z,995.01
2018-07-21T09:07:48.946Z,995.03
2018-07-21T09:08:48.949Z,995.01
2018-07-21T09:09:48.952Z,995.03
2018-07-21T09:10:48.961Z,995.07
2018-07-21T09:11:49.011Z,995.07
2018-07-21T09:12:48.970Z,995.03
2018-07-21T09:13:48.980Z,995.06
2018-07-21T09:14:48.979Z,995.06
2018-07-21T09:15:48.986Z,995.06
2018-07-21T09:16:48.994Z,995.08
2018-07-21T09:17:49.002Z,995.07
2018-07-21T09:18:49.007Z,995.05
2018-07-21T09:19:49.007Z,995.08
2018-07-21T09:20:49.014Z,995.07
2018-07-21T09:21:49.020Z,995.03
2018-07-21T09:22:49.050Z,995.07
2018-07-21T09:23:49.028Z,995.02
2018-07-21T09:24:49.040Z,995.06
2018-07-21T09:25:49.041Z,995.04
2018-07-21T09:26:49.054Z,995.07
2018-07-21T09:27:49.060Z,995.04
2018-07-21T09:28:49.056Z,995.08
2018-07-21T09:29:49.061Z,995.07
2018-07-21T09:30:49.075Z,995.09
2018-07-21T09:31:49.075Z,995.09
2018-07-21T09:32:49.079Z,995.12
2018-07-21T09:33:49.085Z,995.10
2018-07-21T09:34:49.090Z,995.14
2018-07-21T09:35:49.094Z,995.14
2018-07-21T09:36:49.103Z,995.17
2018-07-21T09:37:49.105Z,995.18
2018-07-21T09:38:49.118Z,995.17
2018-07-21T09:39:49.115Z,995.17
2018-07-21T09:40:49.135Z,995.16
2018-07-21T09:41:49.128Z,995.19
2018-07-21T09:42:49.131Z,995.21
2018-07-21T09:43:49.137Z,995.18
2018-07-21T09:44:49.143Z,995.21
2018-07-21T09:45:49.154Z,995.17
2018-07-21T09:46:49.153Z,995.22
2018-07-21T09:47:49.161Z,995.19
2018-07-21T09:48:49.164Z,995.20
2018-07-21T09:49:49.170Z,995.25
2018-07-21T09:50:49.177Z,995.22
2018-07-21T09:51:49.182Z,995.24
2018-07-21T09:52:49.198Z,995.26
2018-07-21T09:53:49.193Z,995.25
2018-07-21T09:54:49.207Z,995.27
2018-07-21T09:55:49.294Z,995.34
2018-07-21T09:56:49.216Z,995.35
2018-07-21T09:57:49.213Z,995.33
2018-07-21T09:58:49.223Z,995.35
2018-07-21T09:59:49.226Z,995.33
2018-07-21T10:00:49.231Z,995.35
2018-07-21T10:01:49.235Z,995.40
2018-07-21T10:02:49.242Z,995.38
2018-07-21T10:03:49.247Z,995.44
2018-07-21T10:04:49.254Z,995.43
2018-07-21T10:05:49.257Z,995.46
2018-07-21T10:06:49.261Z,995.45
2018-07-21T10:07:49.266Z,995.47
2018-07-21T10:08:49.272Z,995.47
2018-07-21T10:09:49.278Z,995.48
2018-07-21T10:10:49.293Z,995.45
2018-07-21T10:11:49.361Z,995.47
2018-07-21T10:12:49.294Z,995.50
2018-07-21T10:13:49.305Z,995.51
2018-07-21T10:14:49.305Z,995.52
2018-07-21T10:15:49.310Z,995.53
2018-07-21T10:16:49.315Z,995.55
2018-07-21T10:17:49.328Z,995.57
2018-07-21T10:18:49.325Z,995.57
2018-07-21T10:19:49.333Z,995.56
2018-07-21T10:20:49.350Z,995.58
2018-07-21T10:21:49.372Z,995.58
2018-07-21T10:22:49.347Z,995.56
2018-07-21T10:23:49.361Z,995.61
2018-07-21T10:24:49.358Z,995.60
2018-07-21T10:25:49.365Z,995.59
2018-07-21T10:26:49.369Z,995.60
2018-07-21T10:27:49.374Z,995.57
2018-07-21T10:28:49.383Z,995.60
2018-07-21T10:29:49.386Z,995.58
2018-07-21T10:30:49.396Z,995.64
2018-07-21T10:31:49.393Z,995.65
2018-07-21T10:32:49.400Z,995.63
2018-07-21T10:33:49.408Z,995.64
2018-07-21T10:34:49.411Z,995.64
2018-07-21T10:35:49.539Z,995.68
2018-07-21T10:36:49.430Z,995.66
2018-07-21T10:37:49.429Z,995.71
2018-07-21T10:38:49.433Z,995.70
2018-07-21T10:39:49.437Z,995.66
2018-07-21T10:40:49.443Z,995.70
2018-07-21T10:41:49.447Z,995.70
2018-07-21T10:42:49.456Z,995.72
2018-07-21T10:43:49.461Z,995.71
2018-07-21T10:44:49.467Z,995.70
2018-07-21T10:45:49.509Z,995.75
2018-07-21T10:46:49.474Z,995.73
2018-07-21T10:47:49.480Z,995.76
2018-07-21T10:48:49.485Z,995.72
2018-07-21T10:49:49.492Z,995.73
2018-07-21T10:50:49.564Z,995.73
2018-07-21T10:51:49.504Z,995.71
2018-07-21T10:52:49.507Z,995.71
2018-07-21T10:53:49.513Z,995.76
2018-07-21T10:54:49.516Z,995.72
2018-07-21T10:55:49.522Z,995.75
2018-07-21T10:56:49.536Z,995.73
2018-07-21T10:57:49.537Z,995.71
2018-07-21T10:58:49.538Z,995.70
2018-07-21T10:59:49.543Z,995.74
2018-07-21T11:00:49.550Z,995.72
2018-07-21T11:01:49.554Z,995.75
2018-07-21T11:02:49.604Z,995.73
2018-07-21T11:03:49.566Z,995.72
2018-07-21T11:04:49.578Z,995.72
2018-07-21T11:05:49.578Z,995.75
2018-07-21T11:06:49.579Z,995.74
2018-07-21T11:07:49.895Z,995.72
2018-07-21T11:08:49.592Z,995.70
2018-07-21T11:09:49.596Z,995.73
2018-07-21T11:10:49.601Z,995.72
2018-07-21T11:11:49.609Z,995.73
2018-07-21T11:12:49.846Z,995.75
2018-07-21T11:13:49.617Z,995.75
2018-07-21T11:14:49.672Z,995.78
2018-07-21T11:15:49.655Z,995.79
2018-07-21T11:16:49.711Z,995.77
2018-07-21T11:17:49.644Z,995.81
2018-07-21T11:18:49.664Z,995.81
2018-07-21T11:19:49.652Z,995.82
2018-07-21T11:20:49.748Z,995.78
2018-07-21T11:21:50.020Z,995.84
2018-07-21T11:22:49.679Z,995.81
2018-07-21T11:23:49.682Z,995.80
2018-07-21T11:24:49.681Z,995.77
2018-07-21T11:25:49.792Z,995.79
2018-07-21T11:26:49.682Z,995.79
2018-07-21T11:27:49.688Z,995.80
2018-07-21T11:28:49.743Z,995.78
2018-07-21T11:29:49.699Z,995.77
2018-07-21T11:30:49.711Z,995.77
2018-07-21T11:31:49.710Z,995.78
2018-07-21T11:32:49.715Z,995.76
2018-07-21T11:33:49.722Z,995.76
2018-07-21T11:34:49.724Z,995.77
2018-07-21T11:35:49.807Z,995.75
2018-07-21T11:36:49.740Z,995.73
2018-07-21T11:37:49.740Z,995.77
2018-07-21T11:38:49.971Z,995.78
2018-07-21T11:39:49.751Z,995.76
2018-07-21T11:40:49.759Z,995.75
2018-07-21T11:41:49.766Z,995.72
2018-07-21T11:42:49.768Z,995.78
2018-07-21T11:43:49.808Z,995.74
2018-07-21T11:44:49.777Z,995.76
2018-07-21T11:45:49.807Z,995.77
2018-07-21T11:46:49.834Z,995.75
2018-07-21T11:47:49.795Z,995.79
2018-07-21T11:48:49.822Z,995.76
2018-07-21T11:49:50.143Z,995.81
2018-07-21T11:50:49.811Z,995.79
2018-07-21T11:51:49.845Z,995.80
2018-07-21T11:52:49.821Z,995.85
2018-07-21T11:53:49.828Z,995.83
2018-07-21T11:54:49.837Z,995.85
2018-07-21T11:55:49.865Z,995.84
2018-07-21T11:56:49.844Z,995.87
2018-07-21T11:57:50.286Z,995.92
2018-07-21T11:58:50.005Z,995.89
2018-07-21T11:59:49.926Z,995.90
2018-07-21T12:00:49.873Z,995.89
2018-07-21T12:01:49.893Z,995.94
2018-07-21T12:02:50.152Z,995.89
2018-07-21T12:03:50.060Z,995.90
2018-07-21T12:04:49.903Z,995.90
2018-07-21T12:05:49.900Z,995.92
2018-07-21T12:06:49.930Z,995.92
2018-07-21T12:07:49.907Z,995.93
2018-07-21T12:08:49.965Z,995.95
2018-07-21T12:09:50.470Z,995.96
2018-07-21T12:10:49.932Z,995.95
2018-07-21T12:11:49.922Z,995.99
2018-07-21T12:12:49.971Z,995.99
2018-07-21T12:13:49.949Z,995.96
2018-07-21T12:14:50.072Z,996.01
2018-07-21T12:15:49.943Z,996.00
2018-07-21T12:16:50.076Z,996.01
2018-07-21T12:17:49.952Z,996.03
2018-07-21T12:18:49.970Z,996.04
2018-07-21T12:19:49.962Z,996.04
2018-07-21T12:20:50.000Z,996.10
2018-07-21T12:21:50.020Z,996.07
2018-07-21T12:22:49.980Z,996.07
2018-07-21T12:23:49.997Z,996.13
2018-07-21T12:24:49.987Z,996.12
2018-07-21T12:25:50.029Z,996.13
2018-07-21T12:26:50.000Z,996.14
2018-07-21T12:27:50.021Z,996.15
2018-07-21T12:28:50.012Z,996.14